Topeka, Illinois
Current Conditions -  °F | °C
As of 3:54 PM on Saturday 25 Oct 2014 (Local Time) from KPIA Reporting Station
Clear Clear  
Wind Chill: 77°   Ceiling: Unl
Heat Index: 77°   Visibility: 10mi
Dew Point: 38°   Wind: 9mph
Humidity: 24%   Direction: 320°NW
Pressure: 29.99"   Gusts: NA
Location:  40.33°N, 89.93°W
Report Text: KPIA 252054Z 32008KT 10SM CLR 25/03 A2999 RMK AO2 SLP155 T02500033 56008
Loading
Personal Weather Stations






























Interactive Weather Map
Tropical Storm Tracking
New forecast layout! Learn more

10-Day Weather Forecast

Advertisements
Track Severe Weather on mobile